Time;durP1;ratioP1;P1;durP2;ratioP2;P2;SDS_P1;SDS_P2;PMS_P1;PMS_P2;Temp;Humidity;BMP_temperature;BMP_pressure;BME280_temperature;BME280_humidity;BME280_pressure;Samples;Min_cycle;Max_cycle;Signal;HPM_P1;HPM_P2
2024/04/07 00:04:20;;;;;;;3.38;1.83;;;8.90;99.90;;;;;;8291712;28;20108;-85
2024/04/07 00:13:55;;;;;;;3.50;1.95;;;9.60;99.90;;;;;;8164876;29;20040;-84
2024/04/07 00:23:25;;;;;;;;;;;;;;;;;;;;;
2024/04/07 00:28:30;;;;;;;5.85;1.73;;;9.90;99.90;;;;;;8212131;28;20039;-84
2024/04/07 00:32:42;;;;;;;3.97;2.15;;;9.70;99.90;;;;;;8197459;28;20698;-84
2024/04/07 00:37:30;;;;;;;;;;;;;;;;;;;;;
2024/04/07 00:42:26;;;;;;;2.83;1.90;;;9.50;99.90;;;;;;8261112;28;20430;-84
2024/04/07 00:51:46;;;;;;;4.45;1.70;;;9.00;99.90;;;;;;8391474;28;20063;-84
2024/04/07 01:02:15;;;;;;;;;;;;;;;;;;;;;
2024/04/07 01:51:39;;;;;;;;;;;;;;;;;;;;;
2024/04/07 02:01:04;;;;;;;3.30;1.20;;;8.60;99.90;;;;;;8196082;28;20046;-84
2024/04/07 02:21:03;;;;;;;2.28;1.55;;;9.20;99.90;;;;;;8128069;29;20094;-85
2024/04/07 02:26:02;;;;;;;;;;;;;;;;;;;;;
2024/04/07 02:55:12;;;;;;;1.97;1.20;;;8.40;99.90;;;;;;7930918;29;19919;-85
2024/04/07 03:15:32;;;;;;;2.28;1.10;;;8.10;99.90;;;;;;7944486;29;20099;-85
2024/04/07 03:29:53;;;;;;;3.08;1.33;;;8.10;99.90;;;;;;8122873;23;20058;-85
2024/04/07 03:33:53;;;;;;;2.00;1.33;;;8.10;99.90;;;;;;8258851;28;20391;-83
2024/04/07 03:37:54;;;;;;;1.95;1.20;;;8.00;99.90;;;;;;8271863;28;20034;-83
2024/04/07 03:41:55;;;;;;;3.17;1.30;;;8.00;99.90;;;;;;8287001;28;20132;-83
2024/04/07 03:46:05;;;;;;;1.65;1.23;;;8.00;99.90;;;;;;8262674;28;20049;-83
2024/04/07 03:50:06;;;;;;;2.40;1.13;;;8.00;99.90;;;;;;8253148;28;20061;-83
2024/04/07 03:54:07;;;;;;;2.17;1.13;;;8.00;99.90;;;;;;8255596;28;20026;-83
2024/04/07 03:58:07;;;;;;;3.08;1.42;;;8.00;99.90;;;;;;8279360;28;20105;-84
2024/04/07 04:02:08;;;;;;;1.88;1.35;;;7.90;99.90;;;;;;8272181;28;20048;-84
2024/04/07 04:06:08;;;;;;;3.40;1.63;;;7.90;99.90;;;;;;8267810;28;20073;-81
2024/04/07 04:10:10;;;;;;;3.00;1.40;;;7.90;99.90;;;;;;8274471;28;20045;-83
2024/04/07 04:14:10;;;;;;;1.73;1.17;;;7.80;99.90;;;;;;8269473;28;20077;-83
2024/04/07 04:18:12;;;;;;;2.42;1.35;;;7.80;99.90;;;;;;8264181;28;20037;-84
2024/04/07 04:22:13;;;;;;;1.73;1.00;;;7.80;99.90;;;;;;8294692;28;20065;-84
2024/04/07 04:26:14;;;;;;;2.55;1.30;;;7.90;99.90;;;;;;8274964;28;20034;-83
2024/04/07 04:30:15;;;;;;;3.00;1.30;;;7.90;99.90;;;;;;8268341;28;20053;-83
2024/04/07 04:34:15;;;;;;;2.45;1.40;;;8.00;99.90;;;;;;8271736;28;20034;-83
2024/04/07 04:38:16;;;;;;;1.50;1.20;;;8.00;99.90;;;;;;8282728;28;20574;-84
2024/04/07 04:42:16;;;;;;;2.08;1.30;;;8.00;99.90;;;;;;8261484;28;20030;-83
2024/04/07 04:46:17;;;;;;;2.30;1.25;;;7.90;99.90;;;;;;8257214;28;20101;-83
2024/04/07 04:50:17;;;;;;;2.67;1.38;;;7.90;99.90;;;;;;8253898;28;20026;-83
2024/04/07 04:54:18;;;;;;;2.22;1.40;;;8.00;99.90;;;;;;8281916;28;20484;-83
2024/04/07 04:58:19;;;;;;;3.55;1.30;;;7.90;99.90;;;;;;8281891;28;20049;-84
2024/04/07 05:02:20;;;;;;;4.00;1.30;;;7.80;99.90;;;;;;8269846;28;20644;-83
2024/04/07 05:06:20;;;;;;;3.05;1.40;;;8.00;99.90;;;;;;8283553;28;20045;-84
2024/04/07 05:10:21;;;;;;;4.50;1.50;;;8.10;99.90;;;;;;8260232;28;20657;-83
2024/04/07 05:14:22;;;;;;;2.47;1.33;;;8.10;99.90;;;;;;8275330;28;20483;-83
2024/04/07 05:18:22;;;;;;;2.42;1.30;;;8.20;99.90;;;;;;8248713;28;20037;-85
2024/04/07 05:22:23;;;;;;;1.85;1.13;;;8.40;99.90;;;;;;8269953;28;20030;-84
2024/04/07 05:26:24;;;;;;;2.20;1.30;;;8.80;99.90;;;;;;8279100;28;20069;-84
2024/04/07 05:30:24;;;;;;;1.38;1.20;;;8.90;99.90;;;;;;8267546;28;20037;-83
2024/04/07 05:34:27;;;;;;;1.38;1.05;;;8.90;99.90;;;;;;8269550;28;20031;-83
2024/04/07 05:38:27;;;;;;;2.83;1.30;;;9.50;99.90;;;;;;8263052;28;20043;-83
2024/04/07 05:42:28;;;;;;;1.45;1.13;;;9.50;99.90;;;;;;8274593;28;20031;-84
2024/04/07 05:46:29;;;;;;;2.03;1.20;;;9.10;99.90;;;;;;8256047;28;20042;-83
2024/04/07 05:50:32;;;;;;;2.38;1.23;;;9.10;99.90;;;;;;8272184;28;20046;-84
2024/04/07 05:54:35;;;;;;;2.67;1.30;;;9.20;99.90;;;;;;8290436;28;20050;-84
2024/04/07 05:58:39;;;;;;;3.42;2.10;;;9.30;99.90;;;;;;8278700;28;20118;-85
2024/04/07 06:02:48;;;;;;;2.70;1.40;;;9.50;99.90;;;;;;8256956;28;20037;-84
2024/04/07 06:07:07;;;;;;;;;;;;;;;;;;;;;
2024/04/07 06:11:21;;;;;;;2.28;1.65;;;10.00;99.90;;;;;;8269965;28;20025;-85
2024/04/07 06:15:46;;;;;;;4.45;1.70;;;10.70;99.90;;;;;;8277293;28;20034;-85
2024/04/07 06:20:15;;;;;;;3.70;2.13;;;11.20;99.90;;;;;;8151865;29;20431;-85
2024/04/07 07:05:16;;;;;;;;;;;;;;;;;;;;;
2024/04/07 07:09:19;;;;;;;0.98;0.68;;;17.40;99.90;;;;;;8270782;28;20074;-84
2024/04/07 07:13:19;;;;;;;2.00;1.20;;;17.70;99.90;;;;;;8311421;28;20037;-84
2024/04/07 07:17:20;;;;;;;2.30;1.05;;;18.80;99.90;;;;;;8328799;28;20025;-84
2024/04/07 07:21:21;;;;;;;3.20;1.10;;;19.90;99.90;;;;;;8329881;28;20033;-83
2024/04/07 07:25:22;;;;;;;1.48;0.77;;;20.10;99.90;;;;;;8318650;28;20588;-84
2024/04/07 07:29:22;;;;;;;1.30;0.75;;;20.20;99.90;;;;;;8309973;28;20065;-84
2024/04/07 07:33:23;;;;;;;2.45;0.90;;;20.40;99.90;;;;;;8325562;28;20486;-83
2024/04/07 07:37:23;;;;;;;2.38;0.90;;;20.30;99.90;;;;;;8307841;28;20493;-84
2024/04/07 07:41:25;;;;;;;1.23;0.82;;;20.40;99.90;;;;;;8324839;28;20509;-83
2024/04/07 07:45:25;;;;;;;1.50;0.50;;;21.00;99.90;;;;;;8324455;28;20037;-84
2024/04/07 07:49:26;;;;;;;1.40;0.77;;;21.10;99.90;;;;;;8344129;28;20517;-84
2024/04/07 07:53:30;;;;;;;2.20;1.15;;;21.20;99.90;;;;;;8312901;28;20088;-83
2024/04/07 07:57:31;;;;;;;3.03;0.90;;;21.50;99.90;;;;;;8320414;28;20513;-83
2024/04/07 08:01:31;;;;;;;3.58;0.85;;;21.60;99.90;;;;;;8313743;28;20037;-83
2024/04/07 08:05:32;;;;;;;1.70;0.70;;;21.70;99.90;;;;;;8318181;28;20061;-84
2024/04/07 08:09:32;;;;;;;2.97;0.82;;;21.90;99.90;;;;;;8311969;28;20045;-84
2024/04/07 08:13:36;;;;;;;1.65;0.90;;;22.50;99.90;;;;;;8310212;28;20037;-84
2024/04/07 08:17:37;;;;;;;1.90;0.60;;;23.60;99.90;;;;;;8317784;28;20124;-82
2024/04/07 08:21:40;;;;;;;4.82;0.95;;;24.20;99.70;;;;;;8317267;28;20045;-83
2024/04/07 08:25:41;;;;;;;1.10;0.60;;;24.70;97.70;;;;;;8317380;28;20155;-83
2024/04/07 08:29:41;;;;;;;2.83;0.90;;;24.60;93.20;;;;;;8318692;28;20034;-82
2024/04/07 08:33:42;;;;;;;4.20;1.08;;;24.40;94.20;;;;;;8319839;28;20034;-84
2024/04/07 08:37:43;;;;;;;2.42;0.90;;;24.50;92.80;;;;;;8314889;28;20034;-83
2024/04/07 08:41:45;;;;;;;1.83;0.90;;;24.50;92.90;;;;;;8308763;28;20558;-85
2024/04/07 08:45:49;;;;;;;2.58;0.90;;;24.90;92.10;;;;;;8329825;28;20026;-85
2024/04/07 08:49:52;;;;;;;2.35;0.85;;;25.10;92.40;;;;;;8314845;28;20451;-85
2024/04/07 08:53:52;;;;;;;1.15;0.70;;;25.40;86.40;;;;;;8318729;28;20033;-85
2024/04/07 08:57:54;;;;;;;2.97;0.85;;;25.50;91.70;;;;;;8315192;28;20112;-85
2024/04/07 09:01:56;;;;;;;2.20;1.10;;;25.70;90.20;;;;;;8313101;28;20033;-85
2024/04/07 09:05:57;;;;;;;4.78;1.10;;;25.60;90.20;;;;;;8335342;28;20026;-86
2024/04/07 09:09:58;;;;;;;1.88;0.88;;;25.50;89.80;;;;;;8312793;28;20035;-85
2024/04/07 09:13:59;;;;;;;1.98;0.90;;;25.60;85.40;;;;;;8335417;28;20025;-85
2024/04/07 09:17:59;;;;;;;6.47;1.13;;;26.10;89.70;;;;;;8309762;28;20048;-86
2024/04/07 09:22:01;;;;;;;3.38;0.90;;;26.60;86.50;;;;;;8317746;28;20057;-85
2024/04/07 09:26:02;;;;;;;3.10;1.20;;;27.40;80.80;;;;;;8334899;28;20038;-85
2024/04/07 09:34:45;;;;;;;2.35;0.70;;;26.90;73.70;;;;;;8424318;28;20060;-84
2024/04/07 09:39:00;;;;;;;3.78;1.02;;;26.50;76.10;;;;;;8401748;28;20028;-85
2024/04/07 09:43:10;;;;;;;1.45;0.80;;;26.10;75.80;;;;;;8354679;28;20029;-85
2024/04/07 09:47:44;;;;;;;3.05;1.02;;;25.30;78.70;;;;;;8360967;28;20065;-85
2024/04/07 09:51:56;;;;;;;2.20;1.08;;;25.00;86.30;;;;;;8348928;28;20021;-86
2024/04/07 09:56:03;;;;;;;2.13;0.93;;;25.00;82.80;;;;;;8344368;28;20033;-87
2024/04/07 10:00:18;;;;;;;2.40;0.60;;;25.10;82.50;;;;;;8341396;28;20025;-86
2024/04/07 10:04:36;;;;;;;3.00;1.00;;;25.50;80.90;;;;;;8339640;28;20025;-86
2024/04/07 10:08:40;;;;;;;38.78;16.25;;;25.50;77.90;;;;;;8346698;28;20045;-86
2024/04/07 10:12:40;;;;;;;2.53;1.25;;;25.70;81.00;;;;;;8336911;28;20033;-86
2024/04/07 10:16:58;;;;;;;3.45;0.95;;;25.80;79.50;;;;;;8340592;28;20037;-86
2024/04/07 10:21:16;;;;;;;4.50;1.20;;;26.10;74.90;;;;;;8363370;28;20448;-85
2024/04/07 10:25:20;;;;;;;1.58;0.88;;;26.00;79.90;;;;;;8353133;28;20029;-84
2024/04/07 10:29:31;;;;;;;2.78;1.00;;;26.20;76.40;;;;;;8349421;28;20040;-86
2024/04/07 10:33:41;;;;;;;;;;;;;;;;;;;;;
2024/04/07 10:37:53;;;;;;;2.95;0.98;;;27.10;76.20;;;;;;8429763;28;19912;-85
2024/04/07 10:42:35;;;;;;;;;;;28.50;73.70;;;;;;8400971;28;20564;-85
2024/04/07 10:52:34;;;;;;;2.50;1.00;;;29.00;71.80;;;;;;8270162;28;20084;-84
2024/04/07 11:06:47;;;;;;;;;;;;;;;;;;;;;
2024/04/07 11:16:38;;;;;;;3.65;1.17;;;28.10;65.20;;;;;;8290910;28;20124;-85
2024/04/07 11:21:27;;;;;;;;;;;;;;;;;;;;;
2024/04/07 12:03:07;;;;;;;;;;;;;;;;;;;;;
2024/04/07 12:13:49;;;;;;;2.55;1.02;;;28.30;66.50;;;;;;7977997;29;20020;-84
2024/04/07 12:18:42;;;;;;;3.17;0.88;;;28.50;64.10;;;;;;8270612;28;20067;-86
2024/04/07 12:39:08;;;;;;;;;;;;;;;;;;;;;
2024/04/07 13:08:35;;;;;;;;;;;;;;;;;;;;;
2024/04/07 13:13:43;;;;;;;;;;;;;;;;;;;;;
2024/04/07 13:18:01;;;;;;;4.03;1.08;;;29.70;59.00;;;;;;8415595;28;20037;-86
2024/04/07 13:32:49;;;;;;;4.97;0.90;;;29.00;63.90;;;;;;8287607;28;20115;-87
2024/04/07 13:37:18;;;;;;;;;;;;;;;;;;;;;
2024/04/07 13:42:26;;;;;;;3.70;1.05;;;28.60;63.20;;;;;;8413143;28;20027;-86
2024/04/07 14:02:17;;;;;;;3.80;1.10;;;30.20;58.70;;;;;;8165745;29;20040;-86
2024/04/07 14:06:37;;;;;;;6.07;1.13;;;31.30;56.80;;;;;;8142137;29;20135;-86
2024/04/07 14:11:17;;;;;;;4.10;1.10;;;31.60;56.00;;;;;;8145339;29;20039;-85
2024/04/07 14:15:35;;;;;;;4.10;0.82;;;33.60;54.50;;;;;;8252092;28;20078;-85
2024/04/07 14:25:21;;;;;;;1.60;0.75;;;32.00;55.80;;;;;;8303928;28;20035;-86
2024/04/07 14:30:22;;;;;;;;;;;;;;;;;;;;;
2024/04/07 14:34:41;;;;;;;3.13;1.03;;;32.50;50.20;;;;;;8431183;28;20015;-85
2024/04/07 14:44:30;;;;;;;3.78;0.85;;;32.20;50.10;;;;;;8258782;28;20087;-85
2024/04/07 14:49:16;;;;;;;;;;;;;;;;;;;;;
2024/04/07 14:53:46;;;;;;;2.55;0.70;;;29.60;53.70;;;;;;8340040;28;20484;-85
2024/04/07 14:57:47;;;;;;;3.67;1.20;;;28.40;60.40;;;;;;8397745;28;20032;-85
2024/04/07 15:02:44;;;;;;;2.72;0.77;;;28.30;56.90;;;;;;8392588;28;20052;-85
2024/04/07 15:06:54;;;;;;;3.05;1.02;;;28.20;56.20;;;;;;8367973;28;20047;-85
2024/04/07 15:16:07;;;;;;;;;;;;;;;;;;;;;
2024/04/07 15:32:17;;;;;;;;;;;;;;;;;;;;;
2024/04/07 15:46:52;;;;;;;5.05;1.48;;;28.80;69.80;;;;;;8216135;28;20042;-85
2024/04/07 16:02:15;;;;;;;3.28;0.88;;;26.20;61.10;;;;;;8268862;28;20099;-85
2024/04/07 16:10:56;;;;;;;2.97;1.52;;;25.60;61.60;;;;;;8276938;28;20116;-85
2024/04/07 16:20:05;;;;;;;;;;;;;;;;;;;;;
2024/04/07 16:25:20;;;;;;;;;;;;;;;;;;;;;
2024/04/07 16:30:01;;;;;;;;;;;;;;;;;;;;;
2024/04/07 16:34:30;;;;;;;4.53;0.85;;;23.80;84.40;;;;;;8235399;28;20031;-86
2024/04/07 16:43:51;;;;;;;;;;;;;;;;;;;;;
2024/04/07 17:13:42;;;;;;;4.57;1.20;;;21.50;96.00;;;;;;8052387;29;20191;-85
2024/04/07 17:18:23;;;;;;;4.68;0.95;;;21.20;94.60;;;;;;8169850;28;20061;-85
2024/04/07 17:22:47;;;;;;;2.20;1.13;;;21.20;93.00;;;;;;8287212;28;20041;-83
2024/04/07 17:37:18;;;;;;;5.30;1.20;;;20.30;96.80;;;;;;8201507;28;20196;-85
2024/04/07 17:41:31;;;;;;;2.10;0.98;;;19.40;99.20;;;;;;8272192;28;20041;-85
2024/04/07 17:46:12;;;;;;;;;;;;;;;;;;;;;
2024/04/07 17:50:42;;;;;;;3.95;1.95;;;18.60;99.90;;;;;;8252000;28;20050;-85
2024/04/07 18:15:34;;;;;;;6.97;2.00;;;18.10;99.90;;;;;;8189558;28;20063;-85
2024/04/07 18:20:33;;;;;;;8.48;1.60;;;18.20;99.90;;;;;;8166979;29;20548;-84
2024/04/07 18:52:13;;;;;;;;;;;;;;;;;;;;;
2024/04/07 18:57:16;;;;;;;7.77;2.53;;;17.70;99.90;;;;;;8122606;29;20040;-83
2024/04/07 19:22:09;;;;;;;6.88;2.50;;;17.70;99.90;;;;;;8222677;28;20066;-84
2024/04/07 19:37:26;;;;;;;;;;;;;;;;;;;;;
2024/04/07 19:47:50;;;;;;;;;;;;;;;;;;;;;
2024/04/07 19:52:24;;;;;;;6.55;3.13;;;16.80;99.90;;;;;;8294826;28;20041;-85
2024/04/07 20:22:19;;;;;;;4.45;1.58;;;17.00;99.90;;;;;;8274482;28;20064;-84
2024/04/07 20:31:30;;;;;;;;;;;;;;;;;;;;;
2024/04/07 20:41:31;;;;;;;4.03;1.50;;;16.70;99.90;;;;;;8316757;28;20037;-84
2024/04/07 20:46:37;;;;;;;;;;;;;;;;;;;;;
2024/04/07 20:51:58;;;;;;;;;;;;;;;;;;;;;
2024/04/07 20:56:48;;;;;;;;;;;;;;;;;;;;;
2024/04/07 21:07:08;;;;;;;2.33;1.08;;;16.20;99.90;;;;;;8170965;29;20788;-85
2024/04/07 21:12:09;;;;;;;5.13;1.65;;;16.20;99.90;;;;;;8129996;29;20125;-84
2024/04/07 21:21:16;;;;;;;4.13;1.45;;;16.70;99.90;;;;;;8282274;28;20048;-85
2024/04/07 21:26:04;;;;;;;;;;;;;;;;;;;;;
2024/04/07 21:30:43;;;;;;;;;;;;;;;;;;;;;
2024/04/07 21:34:51;;;;;;;4.18;1.67;;;16.50;99.90;;;;;;8379660;23;20064;-83
2024/04/07 21:38:52;;;;;;;1.88;1.13;;;16.50;99.90;;;;;;8365736;28;20108;-83
2024/04/07 21:42:52;;;;;;;5.22;1.30;;;16.30;99.90;;;;;;8342844;28;20077;-83
2024/04/07 21:46:53;;;;;;;7.45;1.33;;;16.10;99.90;;;;;;8378312;28;20033;-83
2024/04/07 21:50:53;;;;;;;3.22;1.10;;;16.10;99.90;;;;;;8375419;28;20047;-83
2024/04/07 21:54:54;;;;;;;6.40;1.20;;;16.20;99.90;;;;;;8401010;28;20037;-83
2024/04/07 21:58:55;;;;;;;3.08;0.95;;;16.10;99.90;;;;;;8397717;28;20079;-83
2024/04/07 22:02:55;;;;;;;3.60;1.27;;;16.00;99.90;;;;;;8387398;28;20033;-83
2024/04/07 22:06:56;;;;;;;6.70;1.58;;;16.00;99.90;;;;;;8374850;28;20400;-83
2024/04/07 22:10:56;;;;;;;4.68;1.52;;;15.90;99.90;;;;;;8399466;28;20025;-83
2024/04/07 22:14:57;;;;;;;3.15;1.20;;;15.70;99.90;;;;;;8387142;28;20059;-84
2024/04/07 22:18:58;;;;;;;4.13;1.65;;;15.70;99.90;;;;;;8399860;28;20032;-83
2024/04/07 22:22:59;;;;;;;1.70;1.20;;;15.80;99.90;;;;;;8385183;28;20094;-83
2024/04/07 22:26:59;;;;;;;6.95;1.23;;;15.80;99.90;;;;;;8389966;28;20112;-84
2024/04/07 22:31:01;;;;;;;2.92;1.05;;;15.70;99.90;;;;;;8374472;28;20036;-83
2024/04/07 22:35:03;;;;;;;2.15;1.30;;;15.60;99.90;;;;;;8400179;28;20513;-83
2024/04/07 22:39:04;;;;;;;3.00;1.15;;;15.60;99.90;;;;;;8386588;28;20512;-83
2024/04/07 22:43:04;;;;;;;3.13;1.35;;;15.50;99.90;;;;;;8366696;28;20111;-84
2024/04/07 22:47:05;;;;;;;4.15;1.48;;;15.30;99.90;;;;;;8376949;28;20052;-83
2024/04/07 22:51:06;;;;;;;6.20;1.65;;;15.50;99.90;;;;;;8379805;28;20366;-83
2024/04/07 22:55:06;;;;;;;4.00;1.38;;;15.30;99.90;;;;;;8384258;28;20029;-83
2024/04/07 22:59:07;;;;;;;5.85;1.40;;;15.00;99.90;;;;;;8409268;28;20020;-83
2024/04/07 23:03:08;;;;;;;2.67;1.33;;;14.70;99.90;;;;;;8370546;28;20519;-83
2024/04/07 23:07:08;;;;;;;4.45;1.50;;;14.60;99.90;;;;;;8401007;28;20032;-83
2024/04/07 23:11:09;;;;;;;3.92;1.52;;;14.40;99.90;;;;;;8407833;28;20044;-84
2024/04/07 23:15:09;;;;;;;4.70;1.20;;;14.30;99.90;;;;;;8389167;28;20047;-84
2024/04/07 23:19:10;;;;;;;2.10;1.05;;;14.30;99.90;;;;;;8390480;28;20031;-85
2024/04/07 23:23:11;;;;;;;3.60;1.40;;;14.10;99.90;;;;;;8390771;28;20032;-84
2024/04/07 23:27:12;;;;;;;6.55;1.67;;;14.00;99.90;;;;;;8380544;28;20104;-84
2024/04/07 23:31:12;;;;;;;4.82;1.33;;;13.90;99.90;;;;;;8388075;28;20072;-83
2024/04/07 23:35:13;;;;;;;4.95;1.58;;;14.00;99.90;;;;;;8391694;28;20032;-83
2024/04/07 23:39:13;;;;;;;4.82;1.40;;;13.90;99.90;;;;;;8368662;28;20032;-83
2024/04/07 23:43:14;;;;;;;4.80;1.10;;;13.70;99.90;;;;;;8369688;28;20025;-83
2024/04/07 23:47:14;;;;;;;5.05;1.42;;;13.60;99.90;;;;;;8381873;28;20814;-83
2024/04/07 23:51:15;;;;;;;5.32;1.30;;;13.50;99.90;;;;;;8363602;28;20523;-83
2024/04/07 23:55:15;;;;;;;6.25;1.42;;;13.40;99.90;;;;;;8395060;28;20016;-83
2024/04/07 23:59:19;;;;;;;3.17;1.27;;;13.30;99.90;;;;;;8370263;28;20394;-83
